Time;durP1;ratioP1;P1;durP2;ratioP2;P2;SDS_P1;SDS_P2;PMS_P1;PMS_P2;Temp;Humidity;BMP_temperature;BMP_pressure;BME280_temperature;BME280_humidity;BME280_pressure;Samples;Min_cycle;Max_cycle;Signal;HPM_P1;HPM_P2
2021/07/08 00:00:18;;;;;;;6.88;5.70;;;;;;;24.87;52.79;95003.00;2971673;39;20253;-70
2021/07/08 00:02:20;;;;;;;6.80;5.95;;;;;;;24.90;52.64;94999.84;2965550;40;20393;-70
2021/07/08 00:04:22;;;;;;;9.02;5.90;;;;;;;24.44;54.15;95000.84;2973550;39;20431;-69
2021/07/08 00:06:24;;;;;;;6.53;5.60;;;;;;;24.35;54.24;95007.59;2966687;40;20400;-68
2021/07/08 00:08:25;;;;;;;8.45;5.15;;;;;;;24.33;53.94;95010.53;2966851;40;20830;-70
2021/07/08 00:10:31;;;;;;;6.53;5.50;;;;;;;24.08;54.39;95013.50;2966377;40;20262;-69
2021/07/08 00:12:33;;;;;;;5.95;5.10;;;;;;;23.56;55.83;95024.09;2967332;40;20434;-69
2021/07/08 00:14:35;;;;;;;5.82;5.00;;;;;;;23.37;56.63;95020.72;2972908;40;20630;-69
2021/07/08 00:16:38;;;;;;;7.28;5.75;;;;;;;23.34;57.08;95026.50;2957785;40;20052;-69
2021/07/08 00:18:39;;;;;;;7.28;5.93;;;;;;;23.36;56.64;95027.09;2970738;40;20055;-69
2021/07/08 00:20:45;;;;;;;13.30;5.72;;;;;;;23.43;56.83;95025.13;2971280;40;20047;-70
2021/07/08 00:22:47;;;;;;;7.03;6.10;;;;;;;23.59;56.14;95027.09;2974149;40;20096;-69
2021/07/08 00:24:49;;;;;;;7.97;5.83;;;;;;;23.76;56.29;95024.56;2966330;40;20086;-69
2021/07/08 00:26:51;;;;;;;6.90;6.13;;;;;;;23.90;55.78;95031.31;2966798;40;20373;-69
2021/07/08 00:28:53;;;;;;;7.90;6.10;;;;;;;24.04;55.27;95025.72;2966940;40;20060;-69
2021/07/08 00:30:55;;;;;;;7.35;5.57;;;;;;;24.15;54.79;95024.06;2960754;40;20129;-68
2021/07/08 00:32:56;;;;;;;6.72;5.45;;;;;;;24.22;54.21;95025.59;2968366;40;20501;-68
2021/07/08 00:34:59;;;;;;;6.45;5.18;;;;;;;24.24;54.24;95034.19;2965835;40;20328;-68
2021/07/08 00:37:00;;;;;;;8.52;5.90;;;;;;;24.31;53.89;95036.72;2965331;40;20314;-69
2021/07/08 00:39:03;;;;;;;6.88;5.95;;;;;;;24.30;54.32;95035.09;2967343;40;20434;-69
2021/07/08 00:41:05;;;;;;;8.00;5.85;;;;;;;24.28;54.48;95038.00;2965723;40;20121;-69
2021/07/08 00:43:07;;;;;;;6.85;5.50;;;;;;;24.34;54.18;95033.56;2971286;40;20044;-69
2021/07/08 00:45:12;;;;;;;7.13;5.78;;;;;;;24.36;54.63;95038.69;2958473;40;20155;-69
2021/07/08 00:47:14;;;;;;;7.20;6.00;;;;;;;24.39;54.15;95032.84;2962828;40;20063;-70
2021/07/08 00:49:16;;;;;;;8.60;6.15;;;;;;;24.41;54.02;95028.06;2958523;39;20055;-69
2021/07/08 00:51:18;;;;;;;6.80;5.82;;;;;;;24.42;54.20;95035.06;2966881;40;20192;-68
2021/07/08 00:53:21;;;;;;;6.72;5.53;;;;;;;24.43;54.11;95031.34;2968714;40;20461;-80
2021/07/08 00:55:23;;;;;;;6.75;6.05;;;;;;;24.18;54.72;95028.94;2966736;40;20127;-80
2021/07/08 00:57:24;;;;;;;7.40;6.28;;;;;;;24.03;55.07;95026.78;2976490;40;20229;-82
2021/07/08 00:59:26;;;;;;;7.28;5.72;;;;;;;23.85;55.59;95030.38;2975126;40;20056;-80
2021/07/08 01:01:28;;;;;;;8.27;6.05;;;;;;;23.69;56.66;95035.38;2969308;40;20083;-82
2021/07/08 01:03:30;;;;;;;7.93;6.30;;;;;;;23.59;56.81;95028.97;2951813;40;20057;-80
2021/07/08 01:05:33;;;;;;;8.10;6.43;;;;;;;23.20;58.06;95026.72;2968070;40;20326;-81
2021/07/08 01:07:36;;;;;;;7.57;6.75;;;;;;;23.04;58.82;95030.06;2965741;40;20319;-81
2021/07/08 01:09:38;;;;;;;8.85;6.45;;;;;;;23.09;58.77;95030.19;2970489;40;20112;-82
2021/07/08 01:11:40;;;;;;;8.55;6.65;;;;;;;22.67;60.38;95032.78;2968655;40;20256;-80
2021/07/08 01:13:42;;;;;;;8.23;6.78;;;;;;;22.50;60.87;95029.97;2959967;40;20122;-81
2021/07/08 01:15:44;;;;;;;7.90;6.40;;;;;;;22.70;60.13;95024.34;2971777;40;20273;-82
2021/07/08 01:17:46;;;;;;;11.15;6.63;;;;;;;22.89;59.40;95022.44;2969964;40;20060;-80
2021/07/08 01:19:48;;;;;;;11.55;6.47;;;;;;;23.09;58.93;95027.50;2972597;40;20534;-82
2021/07/08 01:21:50;;;;;;;6.93;5.93;;;;;;;23.09;58.93;95035.53;2975244;40;20064;-82
2021/07/08 01:23:54;;;;;;;8.85;5.88;;;;;;;23.19;58.59;95027.78;2973010;40;20068;-81
2021/07/08 01:25:55;;;;;;;;;;;;;;;;;;2962080;40;20080;-82
2021/07/08 01:27:58;;;;;;;8.68;6.15;;;;;;;23.46;57.61;95032.69;2975371;40;19939;-80
2021/07/08 01:30:00;;;;;;;7.47;6.40;;;;;;;23.58;56.83;95024.69;2969033;40;20052;-82
2021/07/08 01:32:02;;;;;;;7.78;6.32;;;;;;;23.68;56.69;95024.88;2965424;40;20314;-81
2021/07/08 01:34:04;;;;;;;8.32;5.95;;;;;;;23.71;56.31;95025.25;2966434;40;20060;-81
2021/07/08 01:36:05;;;;;;;8.45;6.20;;;;;;;23.75;56.07;95033.63;2960521;40;20049;-82
2021/07/08 01:38:07;;;;;;;11.57;6.03;;;;;;;23.79;56.38;95031.31;2959303;40;20052;-81
2021/07/08 01:40:12;;;;;;;7.30;5.72;;;;;;;23.80;55.87;95035.63;2968565;40;20160;-82
2021/07/08 01:42:14;;;;;;;11.65;5.97;;;;;;;23.78;56.46;95037.72;2970767;40;20266;-80
2021/07/08 01:44:16;;;;;;;8.43;5.72;;;;;;;23.78;56.03;95038.53;2966108;40;20063;-80
2021/07/08 01:46:18;;;;;;;7.63;6.20;;;;;;;23.48;56.86;95031.41;2953851;40;20568;-81
2021/07/08 01:48:21;;;;;;;10.63;6.35;;;;;;;23.23;57.86;95045.00;2966935;40;20304;-81
2021/07/08 01:50:22;;;;;;;8.10;5.72;;;;;;;23.27;57.50;95039.97;2958953;40;20071;-80
2021/07/08 01:52:24;;;;;;;7.70;6.03;;;;;;;23.33;57.70;95033.72;2962495;40;20071;-82
2021/07/08 01:54:26;;;;;;;9.25;6.97;;;;;;;23.29;57.44;95041.38;2967603;40;20596;-81
2021/07/08 01:56:28;;;;;;;9.65;6.20;;;;;;;23.23;57.52;95041.47;2967263;40;20324;-80
2021/07/08 01:58:30;;;;;;;9.75;6.47;;;;;;;23.27;57.60;95043.47;2968426;40;20060;-82
2021/07/08 02:00:32;;;;;;;6.53;5.80;;;;;;;23.34;57.90;95042.53;2968573;40;20259;-81
2021/07/08 02:02:34;;;;;;;8.25;6.30;;;;;;;23.40;57.56;95037.09;2965807;40;20118;-69
2021/07/08 02:04:36;;;;;;;6.88;6.18;;;;;;;23.49;57.03;95032.25;2960727;40;20044;-69
2021/07/08 02:06:38;;;;;;;8.90;6.47;;;;;;;23.54;57.06;95036.88;2954877;40;20077;-69
2021/07/08 02:08:41;;;;;;;8.80;6.38;;;;;;;23.58;57.24;95044.22;2964417;40;20053;-69
2021/07/08 02:10:43;;;;;;;8.80;6.20;;;;;;;23.58;57.20;95044.22;2957966;40;20060;-70
2021/07/08 02:12:45;;;;;;;6.50;5.75;;;;;;;23.57;56.78;95039.88;2952730;40;20054;-82
2021/07/08 02:14:48;;;;;;;7.90;5.90;;;;;;;23.60;56.74;95041.31;2967709;40;20075;-81
2021/07/08 02:16:50;;;;;;;8.80;6.40;;;;;;;23.63;56.66;95035.50;2968100;40;20332;-83
2021/07/08 02:18:52;;;;;;;8.23;6.13;;;;;;;23.67;56.53;95042.81;2966415;40;20478;-81
2021/07/08 02:20:54;;;;;;;8.43;5.63;;;;;;;23.73;56.33;95040.28;2959159;40;20480;-81
2021/07/08 02:22:55;;;;;;;8.65;6.10;;;;;;;23.77;56.47;95041.44;2969387;40;20053;-80
2021/07/08 02:24:57;;;;;;;7.32;6.43;;;;;;;23.75;56.94;95044.34;2968580;40;20142;-81
2021/07/08 02:26:59;;;;;;;9.52;6.95;;;;;;;23.77;56.74;95041.44;2967955;40;20477;-81
2021/07/08 02:29:00;;;;;;;9.18;6.50;;;;;;;23.77;56.79;95044.09;2969156;40;20063;-81
2021/07/08 02:31:03;;;;;;;7.63;6.20;;;;;;;23.79;56.71;95042.84;2967989;40;20051;-82
2021/07/08 02:33:06;;;;;;;10.13;6.27;;;;;;;23.81;56.61;95045.28;2960286;40;20252;-84
2021/07/08 02:35:09;;;;;;;9.18;5.97;;;;;;;23.85;56.63;95046.44;2971098;40;20093;-81
2021/07/08 02:37:11;;;;;;;7.85;6.22;;;;;;;23.86;56.27;95050.75;2970598;40;20057;-81
2021/07/08 02:39:13;;;;;;;7.88;6.00;;;;;;;23.87;56.56;95037.13;2968493;40;20044;-82
2021/07/08 02:41:14;;;;;;;6.95;5.63;;;;;;;23.86;56.39;95040.06;2951621;40;20127;-78
2021/07/08 02:43:16;;;;;;;9.38;6.10;;;;;;;23.85;56.34;95043.75;2967251;40;20053;-80
2021/07/08 02:45:24;;;;;;;8.38;6.00;;;;;;;23.84;56.38;95047.50;2967843;40;20048;-80
2021/07/08 02:47:25;;;;;;;8.13;6.68;;;;;;;23.80;55.97;95041.78;2970845;40;20331;-82
2021/07/08 02:49:31;;;;;;;8.00;6.18;;;;;;;23.76;55.99;95050.53;2957933;40;20153;-80
2021/07/08 02:51:33;;;;;;;6.90;6.20;;;;;;;23.74;56.31;95042.69;2967542;40;20056;-80
2021/07/08 02:53:34;;;;;;;7.57;6.13;;;;;;;23.69;56.10;95051.41;2950356;40;20375;-82
2021/07/08 02:55:37;;;;;;;7.13;5.82;;;;;;;23.71;56.37;95052.00;2968379;40;20068;-81
2021/07/08 02:57:39;;;;;;;6.93;5.93;;;;;;;23.75;56.00;95048.84;2950423;40;20127;-80
2021/07/08 02:59:40;;;;;;;10.10;6.85;;;;;;;23.75;55.84;95044.34;2965926;40;20061;-83
2021/07/08 03:01:42;;;;;;;7.88;6.63;;;;;;;23.74;56.07;95053.38;2963651;40;20112;-84
2021/07/08 03:03:44;;;;;;;6.35;5.70;;;;;;;23.74;56.00;95055.25;2964186;40;20063;-82
2021/07/08 03:05:46;;;;;;;7.25;5.90;;;;;;;23.75;55.93;95055.03;2970582;40;20326;-83
2021/07/08 03:07:47;;;;;;;9.68;6.30;;;;;;;23.77;56.09;95057.47;2967282;40;20321;-80
2021/07/08 03:09:49;;;;;;;9.07;6.82;;;;;;;23.69;56.54;95056.75;2964403;40;20060;-81
2021/07/08 03:11:51;;;;;;;9.40;6.32;;;;;;;23.64;56.28;95062.00;2966482;40;20056;-81
2021/07/08 03:13:53;;;;;;;10.10;6.28;;;;;;;23.49;56.50;95073.16;2967725;40;20060;-83
2021/07/08 03:15:54;;;;;;;8.90;6.38;;;;;;;23.16;57.53;95067.50;2958246;40;20085;-82
2021/07/08 03:17:57;;;;;;;11.63;6.38;;;;;;;23.02;57.98;95070.38;2967564;40;20060;-85
2021/07/08 03:19:59;;;;;;;8.95;6.70;;;;;;;22.89;58.62;95060.66;2957661;40;20053;-70
2021/07/08 03:22:02;;;;;;;10.57;6.65;;;;;;;22.96;58.64;95063.22;2957331;40;20062;-71
2021/07/08 03:24:05;;;;;;;9.30;6.50;;;;;;;23.08;57.96;95066.78;2968560;40;20091;-68
2021/07/08 03:26:07;;;;;;;;;;;;;;;23.18;57.83;95066.22;2966615;40;20124;-70
2021/07/08 03:28:08;;;;;;;8.45;6.13;;;;;;;23.28;57.30;95066.47;2966215;40;20269;-69
2021/07/08 03:30:13;;;;;;;10.13;6.65;;;;;;;23.40;57.50;95063.81;2969225;40;20059;-69
2021/07/08 03:32:14;;;;;;;9.60;6.50;;;;;;;23.48;56.79;95068.03;2966219;40;20060;-69
2021/07/08 03:34:16;;;;;;;9.30;6.43;;;;;;;23.57;56.90;95068.50;2965596;40;20059;-69
2021/07/08 03:36:18;;;;;;;10.63;6.20;;;;;;;23.64;56.31;95070.03;2963279;40;20157;-70
2021/07/08 03:38:20;;;;;;;10.70;6.50;;;;;;;23.73;56.30;95077.72;2961312;40;20052;-71
2021/07/08 03:40:22;;;;;;;10.55;6.53;;;;;;;23.78;56.20;95067.97;2967891;40;20068;-70
2021/07/08 03:42:24;;;;;;;10.25;6.72;;;;;;;23.84;55.92;95072.38;2971847;40;20064;-70
2021/07/08 03:44:25;;;;;;;8.07;6.07;;;;;;;23.83;55.49;95068.09;2963365;40;20079;-69
2021/07/08 03:46:27;;;;;;;9.13;6.35;;;;;;;23.86;56.03;95072.97;2969781;40;20088;-69
2021/07/08 03:48:29;;;;;;;9.50;6.50;;;;;;;23.92;55.76;95079.25;2964685;40;20055;-69
2021/07/08 03:50:33;;;;;;;8.63;6.43;;;;;;;23.96;55.85;95082.25;2958279;40;20048;-69
2021/07/08 03:52:34;;;;;;;11.45;6.68;;;;;;;23.92;55.70;95081.94;2972632;40;20084;-70
2021/07/08 03:54:36;;;;;;;8.48;6.30;;;;;;;23.97;55.51;95078.56;2965013;40;20550;-69
2021/07/08 03:56:38;;;;;;;7.47;6.47;;;;;;;24.02;55.65;95084.00;2967072;40;20063;-68
2021/07/08 03:58:40;;;;;;;8.60;6.75;;;;;;;24.09;55.07;95087.38;2966738;40;20056;-69
2021/07/08 04:00:42;;;;;;;8.63;6.28;;;;;;;24.16;55.22;95087.28;2962889;40;20064;-69
2021/07/08 04:02:44;;;;;;;9.30;6.82;;;;;;;24.20;54.80;95085.72;2962508;40;20345;-69
2021/07/08 04:04:47;;;;;;;12.38;7.20;;;;;;;24.18;55.45;95090.50;2967772;40;20060;-69
2021/07/08 04:06:48;;;;;;;9.90;6.40;;;;;;;24.19;55.26;95086.78;2964424;40;20493;-69
2021/07/08 04:08:50;;;;;;;8.55;6.90;;;;;;;24.25;54.94;95089.34;2971204;40;20084;-69
2021/07/08 04:10:52;;;;;;;9.52;6.68;;;;;;;24.32;54.99;95090.03;2974186;40;20282;-69
2021/07/08 04:12:54;;;;;;;8.35;6.68;;;;;;;24.38;54.52;95087.47;2967653;40;20061;-70
2021/07/08 04:14:56;;;;;;;8.45;6.70;;;;;;;24.44;54.70;95100.72;2963645;40;20504;-69
2021/07/08 04:16:58;;;;;;;7.93;6.70;;;;;;;24.47;54.48;95094.88;2961444;40;20049;-71
2021/07/08 04:19:01;;;;;;;8.48;6.80;;;;;;;24.52;54.47;95097.72;2956066;40;20158;-68
2021/07/08 04:21:03;;;;;;;11.30;7.25;;;;;;;24.56;54.40;95100.72;2958045;40;20096;-69
2021/07/08 04:23:06;;;;;;;8.98;7.10;;;;;;;24.63;54.31;95089.88;2966120;40;20092;-69
2021/07/08 04:25:11;;;;;;;11.45;7.85;;;;;;;24.68;54.32;95093.47;2956646;40;20669;-69
2021/07/08 04:27:13;;;;;;;10.27;8.60;;;;;;;24.74;53.93;95086.38;2955803;40;20435;-70
2021/07/08 04:29:14;;;;;;;8.88;7.45;;;;;;;24.79;53.63;95089.13;2964953;40;20134;-68
2021/07/08 04:31:16;;;;;;;9.80;7.03;;;;;;;24.82;53.47;95080.59;2966837;40;20072;-69
2021/07/08 04:33:18;;;;;;;12.52;8.13;;;;;;;24.83;53.70;95095.63;2960152;40;20064;-70
2021/07/08 04:35:25;;;;;;;12.10;8.57;;;;;;;24.88;53.35;95093.03;2962464;40;20088;-70
2021/07/08 04:37:26;;;;;;;10.30;7.47;;;;;;;24.91;53.06;95089.91;2967248;40;20145;-69
2021/07/08 04:39:28;;;;;;;11.05;8.32;;;;;;;24.93;53.15;95092.34;2965694;40;20068;-68
2021/07/08 04:41:30;;;;;;;9.60;7.82;;;;;;;24.92;53.18;95096.88;2965145;40;20085;-69
2021/07/08 04:43:32;;;;;;;11.75;8.00;;;;;;;24.80;53.79;95104.16;2968188;40;20078;-67
2021/07/08 04:45:33;;;;;;;10.63;8.10;;;;;;;24.27;55.26;95107.84;2967501;40;20056;-69
2021/07/08 04:47:40;;;;;;;10.57;8.73;;;;;;;23.76;56.48;95112.03;2957168;40;20040;-69
2021/07/08 04:49:41;;;;;;;15.40;8.73;;;;;;;23.58;57.56;95113.75;2968870;40;20049;-69
2021/07/08 04:51:43;;;;;;;12.60;8.63;;;;;;;23.42;57.91;95106.38;2968733;40;20067;-69
2021/07/08 04:53:45;;;;;;;10.02;7.75;;;;;;;;;;2958384;40;20063;-71
2021/07/08 04:55:46;;;;;;;9.50;7.70;;;;;;;23.17;59.05;95114.56;2962992;40;20431;-70
2021/07/08 04:57:52;;;;;;;12.75;7.80;;;;;;;22.96;59.17;95113.19;2965824;40;20060;-70
2021/07/08 04:59:54;;;;;;;14.98;7.93;;;;;;;22.51;60.76;95121.53;2959641;40;20149;-69
2021/07/08 05:01:56;;;;;;;13.63;8.43;;;;;;;22.44;61.16;95119.75;2965195;40;20153;-69
2021/07/08 05:04:00;;;;;;;10.85;7.35;;;;;;;22.45;61.46;95118.72;2962376;40;20109;-68
2021/07/08 05:06:02;;;;;;;9.90;8.27;;;;;;;22.62;61.17;95120.78;2957453;40;20485;-68
2021/07/08 05:08:04;;;;;;;10.88;7.53;;;;;;;22.78;60.40;95124.69;2966325;40;20048;-69
2021/07/08 05:10:11;;;;;;;13.32;8.27;;;;;;;22.84;60.51;95135.31;2962777;40;20064;-70
2021/07/08 05:12:13;;;;;;;9.20;7.60;;;;;;;23.07;59.45;95131.13;2968867;40;20433;-69
2021/07/08 05:14:15;;;;;;;7.97;7.13;;;;;;;23.38;58.92;95122.06;2963110;40;20064;-69
2021/07/08 05:16:17;;;;;;;14.15;8.55;;;;;;;23.35;58.61;95129.72;2966387;40;20056;-70
2021/07/08 05:18:19;;;;;;;9.82;8.52;;;;;;;23.25;59.06;95131.09;2965391;40;20068;-69
2021/07/08 05:20:20;;;;;;;11.45;8.38;;;;;;;23.51;58.50;95131.72;2962190;40;20400;-84
2021/07/08 05:22:23;;;;;;;14.07;8.98;;;;;;;23.78;57.73;95128.69;2970622;40;20056;-82
2021/07/08 05:24:26;;;;;;;13.02;8.77;;;;;;;23.63;57.90;95132.56;2963484;40;20065;-82
2021/07/08 05:26:27;;;;;;;11.30;9.15;;;;;;;23.31;59.04;95135.50;2967895;40;20044;-85
2021/07/08 05:28:30;;;;;;;12.93;9.40;;;;;;;23.50;58.34;95140.81;2962752;40;20417;-84
2021/07/08 05:30:32;;;;;;;12.85;8.73;;;;;;;23.49;58.40;95141.88;2967395;40;20058;-71
2021/07/08 05:32:34;;;;;;;16.80;9.98;;;;;;;23.48;58.73;95143.69;2966004;40;20065;-68
2021/07/08 05:34:36;;;;;;;14.32;9.27;;;;;;;23.58;58.71;95143.16;2966214;40;20058;-71
2021/07/08 05:36:38;;;;;;;11.98;9.45;;;;;;;23.81;57.95;95141.59;2965680;40;20056;-69
2021/07/08 05:38:39;;;;;;;11.23;9.70;;;;;;;23.96;57.32;95147.28;2969613;40;20132;-71
2021/07/08 05:40:42;;;;;;;12.10;9.05;;;;;;;24.10;56.86;95146.03;2960913;40;20468;-69
2021/07/08 05:42:43;;;;;;;12.15;9.65;;;;;;;24.26;56.56;95147.22;2967125;40;20133;-71
2021/07/08 05:44:45;;;;;;;12.35;9.07;;;;;;;24.48;56.04;95152.78;2968546;40;20436;-68
2021/07/08 05:46:47;;;;;;;11.52;8.43;;;;;;;24.70;55.59;95152.19;2962890;40;20458;-70
2021/07/08 05:48:49;;;;;;;12.73;8.10;;;;;;;24.82;55.15;95152.94;2959283;40;20060;-71
2021/07/08 05:50:51;;;;;;;10.80;8.15;;;;;;;25.03;54.70;95156.03;2959395;40;20068;-68
2021/07/08 05:52:54;;;;;;;12.48;7.72;;;;;;;25.01;54.80;95155.47;2961816;40;20068;-70
2021/07/08 05:54:55;;;;;;;11.65;7.85;;;;;;;24.90;54.76;95154.44;2962841;40;20099;-69
2021/07/08 05:56:57;;;;;;;11.57;7.50;;;;;;;24.88;55.07;95154.69;2962982;40;20181;-70
2021/07/08 05:58:59;;;;;;;9.90;7.28;;;;;;;25.00;55.18;95156.53;2964643;40;20051;-69
2021/07/08 06:01:00;;;;;;;12.88;8.40;;;;;;;24.94;54.92;95166.31;2967371;40;20071;-69
2021/07/08 06:03:06;;;;;;;10.05;7.55;;;;;;;25.06;54.88;95160.91;2966701;40;20408;-69
2021/07/08 06:05:09;;;;;;;13.30;8.13;;;;;;;25.17;54.31;95164.59;2960665;40;20052;-72
2021/07/08 06:07:11;;;;;;;11.23;8.17;;;;;;;25.32;53.86;95159.59;2956934;40;20089;-68
2021/07/08 06:09:12;;;;;;;12.88;7.97;;;;;;;25.50;53.47;95161.25;2960896;40;20427;-70
2021/07/08 06:11:14;;;;;;;10.60;8.18;;;;;;;25.70;52.73;95161.56;2965258;40;20060;-71
2021/07/08 06:13:16;;;;;;;10.18;8.82;;;;;;;25.82;52.23;95158.03;2959607;40;20073;-69
2021/07/08 06:15:20;;;;;;;11.85;8.68;;;;;;;25.87;52.18;95152.72;2971358;40;20052;-70
2021/07/08 06:17:22;;;;;;;10.70;8.38;;;;;;;25.92;52.52;95160.88;2956359;40;20084;-83
2021/07/08 06:19:24;;;;;;;16.10;8.68;;;;;;;26.00;52.00;95163.16;2966960;40;20481;-84
2021/07/08 06:21:25;;;;;;;22.55;9.93;;;;;;;26.14;52.09;95161.78;2970017;40;20541;-82
2021/07/08 06:23:27;;;;;;;18.05;9.25;;;;;;;26.21;51.86;95166.19;2968667;40;20060;-82
2021/07/08 06:25:30;;;;;;;10.07;8.65;;;;;;;26.21;51.39;95153.56;2959690;40;20498;-83
2021/07/08 06:27:32;;;;;;;;;;;;;;;26.26;51.31;95153.63;2969073;40;20326;-81
2021/07/08 06:29:34;;;;;;;14.40;8.70;;;;;;;26.00;51.83;95160.50;2969303;40;19956;-83
2021/07/08 06:31:35;;;;;;;16.58;9.00;;;;;;;25.78;52.90;95156.88;2969526;40;20433;-83
2021/07/08 06:33:37;;;;;;;26.33;9.35;;;;;;;25.92;52.59;95160.88;2960408;40;20056;-82
2021/07/08 06:35:39;;;;;;;20.92;8.65;;;;;;;26.11;52.33;95156.94;2964495;40;20851;-85
2021/07/08 06:37:41;;;;;;;18.80;8.82;;;;;;;26.33;51.49;95161.53;2965956;40;20112;-84
2021/07/08 06:39:43;;;;;;;22.60;9.50;;;;;;;26.24;51.95;95158.47;2967618;40;20076;-82
2021/07/08 06:41:45;;;;;;;10.45;8.18;;;;;;;26.24;52.02;95160.31;2973471;40;20133;-83
2021/07/08 06:43:47;;;;;;;12.07;7.68;;;;;;;26.33;51.82;95158.84;2974143;40;20488;-80
2021/07/08 06:45:48;;;;;;;10.20;7.80;;;;;;;26.39;51.63;95157.03;2974728;40;20085;-82
2021/07/08 06:47:51;;;;;;;11.75;7.85;;;;;;;26.58;51.24;95155.72;2970757;40;20093;-85
2021/07/08 06:49:54;;;;;;;17.10;7.60;;;;;;;26.76;50.81;95160.81;2970901;40;20084;-81
2021/07/08 06:51:55;;;;;;;10.68;7.60;;;;;;;26.86;50.42;95157.41;2969570;40;20071;-83
2021/07/08 06:53:58;;;;;;;16.02;8.05;;;;;;;26.80;50.43;95163.78;2968785;40;20083;-86
2021/07/08 06:55:59;;;;;;;14.80;8.30;;;;;;;26.29;51.19;95161.22;2973301;40;20147;-85
2021/07/08 06:58:01;;;;;;;10.00;7.53;;;;;;;26.37;51.51;95165.34;2960526;40;20055;-84
2021/07/08 07:00:04;;;;;;;14.32;8.60;;;;;;;26.62;51.36;95161.41;2955354;40;20119;-83
2021/07/08 07:02:06;;;;;;;15.25;7.63;;;;;;;26.74;50.74;95154.06;2968837;40;20053;-84
2021/07/08 07:04:08;;;;;;;19.17;8.40;;;;;;;26.81;50.71;95161.94;2968462;40;20052;-83
2021/07/08 07:06:09;;;;;;;18.27;7.93;;;;;;;26.99;50.41;95160.81;2976068;40;20369;-82
2021/07/08 07:08:15;;;;;;;13.48;8.18;;;;;;;27.00;50.00;95163.25;2966830;40;20088;-69
2021/07/08 07:10:17;;;;;;;11.05;7.85;;;;;;;26.94;50.29;95154.31;2967142;40;20056;-71
2021/07/08 07:12:19;;;;;;;8.35;7.35;;;;;;;27.02;49.89;95154.91;2949716;40;20057;-70
2021/07/08 07:14:21;;;;;;;13.70;7.90;;;;;;;26.89;49.99;95158.81;2971376;40;20452;-69
2021/07/08 07:16:22;;;;;;;10.45;7.30;;;;;;;26.90;49.90;95158.56;2971240;40;20056;-69
2021/07/08 07:18:24;;;;;;;10.77;7.45;;;;;;;26.85;49.86;95153.13;2972417;40;20060;-69
2021/07/08 07:20:26;;;;;;;7.85;6.80;;;;;;;27.12;49.78;95144.28;2969145;40;20052;-70
2021/07/08 07:22:28;;;;;;;9.80;7.88;;;;;;;27.31;49.35;95155.53;2964590;40;20049;-69
2021/07/08 07:24:29;;;;;;;16.48;8.00;;;;;;;27.51;49.16;95155.78;2971668;40;20064;-70
2021/07/08 07:26:31;;;;;;;9.90;7.35;;;;;;;27.49;48.51;95152.53;2958974;40;20052;-69
2021/07/08 07:28:33;;;;;;;8.50;6.95;;;;;;;27.44;48.25;95146.25;2969589;40;20141;-70
2021/07/08 07:30:36;;;;;;;6.63;5.63;;;;;;;27.54;48.15;95152.56;2964960;40;20081;-68
2021/07/08 07:32:38;;;;;;;9.68;6.30;;;;;;;27.68;48.08;95152.94;2971700;40;20112;-68
2021/07/08 07:34:39;;;;;;;9.43;5.95;;;;;;;27.87;47.45;95149.91;2967414;40;20054;-70
2021/07/08 07:36:41;;;;;;;9.65;6.68;;;;;;;28.03;47.23;95153.53;2967122;40;20091;-70
2021/07/08 07:38:43;;;;;;;8.00;5.78;;;;;;;28.15;47.26;95146.09;2964245;40;20071;-69
2021/07/08 07:40:45;;;;;;;8.95;5.82;;;;;;;27.97;46.93;95150.00;2964952;40;20044;-70
2021/07/08 07:42:47;;;;;;;11.48;5.57;;;;;;;28.08;45.95;95151.69;2970160;40;20148;-69
2021/07/08 07:44:50;;;;;;;22.08;5.85;;;;;;;28.15;46.31;95146.88;2975294;40;20307;-69
2021/07/08 07:46:52;;;;;;;9.83;5.67;;;;;;;28.08;46.32;95150.88;2969673;40;20654;-70
2021/07/08 07:48:54;;;;;;;15.10;7.18;;;;;;;28.12;46.06;95147.41;2965817;40;20303;-70
2021/07/08 07:50:56;;;;;;;9.52;5.35;;;;;;;28.03;46.05;95148.97;2968219;40;20056;-70
2021/07/08 07:52:58;;;;;;;8.40;5.43;;;;;;;27.81;46.07;95149.00;2966247;40;20048;-68
2021/07/08 07:55:01;;;;;;;8.82;5.43;;;;;;;27.75;46.59;95148.19;2965767;40;20072;-71
2021/07/08 07:57:05;;;;;;;8.35;5.30;;;;;;;27.70;46.83;95147.31;2964743;40;20380;-72
2021/07/08 07:59:07;;;;;;;8.10;5.68;;;;;;;27.87;47.17;95142.63;2966212;40;20059;-70
2021/07/08 08:01:09;;;;;;;10.60;6.13;;;;;;;27.87;46.33;95131.06;2965224;40;20134;-71
2021/07/08 08:03:11;;;;;;;12.18;5.53;;;;;;;28.16;46.22;95135.06;2960502;40;20163;-69
2021/07/08 08:09:37;;;;;;;9.18;5.63;;;;;;;28.78;44.16;95140.81;2966916;40;20160;-69
2021/07/08 08:11:39;;;;;;;9.05;5.18;;;;;;;28.95;43.98;95141.44;2962653;40;20439;-70
2021/07/08 08:13:41;;;;;;;8.30;5.03;;;;;;;29.11;42.61;95141.53;2957646;40;20044;-70
2021/07/08 08:15:46;;;;;;;7.85;5.85;;;;;;;29.20;42.51;95134.53;2966732;40;20053;-69
2021/07/08 08:17:48;;;;;;;6.53;4.90;;;;;;;29.28;41.83;95136.72;2962246;40;20048;-71
2021/07/08 08:19:50;;;;;;;5.80;4.80;;;;;;;29.40;41.76;95136.47;2964158;40;20072;-70
2021/07/08 08:21:52;;;;;;;8.45;4.43;;;;;;;29.48;41.88;95133.25;2967181;40;20631;-70
2021/07/08 08:23:53;;;;;;;7.88;5.45;;;;;;;29.00;41.92;95130.66;2965869;40;20255;-69
2021/07/08 08:25:56;;;;;;;10.02;5.20;;;;;;;28.98;42.31;95132.81;2966730;40;20052;-70
2021/07/08 08:27:59;;;;;;;7.72;5.57;;;;;;;28.50;43.16;95131.25;2969089;40;20211;-71
2021/07/08 08:30:00;;;;;;;6.35;5.20;;;;;;;28.77;43.11;95129.22;2958807;40;20069;-70
2021/07/08 08:32:02;;;;;;;9.90;5.05;;;;;;;28.75;42.96;95127.88;2964441;40;20090;-70
2021/07/08 08:34:04;;;;;;;7.10;5.07;;;;;;;28.93;43.18;95130.13;2965136;40;20068;-69
2021/07/08 08:36:06;;;;;;;8.30;5.32;;;;;;;29.19;43.08;95133.72;2970683;40;20412;-69
2021/07/08 08:38:08;;;;;;;8.13;5.07;;;;;;;29.11;42.88;95139.63;2966813;40;20110;-69
2021/07/08 08:40:11;;;;;;;7.70;5.50;;;;;;;28.61;43.21;95129.41;2964530;40;20037;-70
2021/07/08 08:42:13;;;;;;;7.15;5.57;;;;;;;28.58;43.59;95131.56;2964874;40;20084;-70
2021/07/08 08:44:15;;;;;;;8.75;5.32;;;;;;;28.52;44.23;95131.78;2959260;40;20064;-71
2021/07/08 08:46:17;;;;;;;8.23;5.55;;;;;;;28.54;44.06;95130.44;2969553;40;20148;-70
2021/07/08 08:48:18;;;;;;;7.30;5.57;;;;;;;28.93;43.00;95132.81;2969817;40;20369;-70
2021/07/08 08:50:21;;;;;;;9.48;5.70;;;;;;;29.14;42.89;95127.50;2966267;40;20056;-70
2021/07/08 08:52:22;;;;;;;10.75;6.00;;;;;;;29.23;42.54;95119.69;2966272;40;20053;-70
2021/07/08 08:54:24;;;;;;;10.45;5.63;;;;;;;29.33;42.75;95125.91;2956690;40;20061;-69
2021/07/08 08:56:27;;;;;;;14.02;6.10;;;;;;;29.57;42.70;95133.53;2966505;40;20136;-69
2021/07/08 08:58:29;;;;;;;16.98;7.13;;;;;;;29.78;42.04;95129.78;2961828;40;20064;-69
2021/07/08 09:00:30;;;;;;;13.63;7.22;;;;;;;29.94;41.41;95137.88;2958388;40;20385;-71
2021/07/08 09:02:32;;;;;;;8.02;6.18;;;;;;;29.97;40.58;95131.97;2965179;40;20048;-70
2021/07/08 09:04:34;;;;;;;11.68;6.90;;;;;;;30.05;40.65;95131.41;2962845;40;20181;-69
2021/07/08 09:06:37;;;;;;;7.65;6.45;;;;;;;30.17;39.88;95134.63;2966097;40;20354;-69
2021/07/08 09:08:48;;;;;;;19.47;6.27;;;;;;;30.42;39.76;95130.31;2965092;40;20064;-69
2021/07/08 09:11:20;;;;;;;11.48;6.20;;;;;;;30.41;39.78;95131.38;2966264;40;20305;-71
2021/07/08 09:13:22;;;;;;;8.73;6.00;;;;;;;30.54;39.28;95143.53;2956712;40;20045;-69
2021/07/08 09:15:24;;;;;;;10.23;6.47;;;;;;;30.41;39.09;95137.59;2965781;40;20107;-69
2021/07/08 09:17:26;;;;;;;6.93;6.20;;;;;;;30.24;39.97;95136.25;2965842;40;20072;-70
2021/07/08 09:19:29;;;;;;;9.98;6.93;;;;;;;30.10;40.61;95136.00;2962131;40;20147;-70
2021/07/08 09:21:47;;;;;;;8.93;6.05;;;;;;;29.84;41.39;95132.50;2967544;40;20067;-69
2021/07/08 09:24:29;;;;;;;10.70;6.30;;;;;;;29.87;40.81;95127.34;2956617;40;20056;-81
2021/07/08 09:26:32;;;;;;;8.18;6.45;;;;;;;29.93;40.71;95133.59;2926491;40;20054;-82
2021/07/08 09:28:36;;;;;;;7.72;6.30;;;;;;;30.05;41.18;95136.81;2951836;40;20089;-81
2021/07/08 09:30:39;;;;;;;8.82;6.70;;;;;;;30.20;41.41;95142.22;2968946;40;20067;-83
2021/07/08 09:32:41;;;;;;;8.82;6.47;;;;;;;30.21;40.29;95140.31;2969026;40;20428;-84
2021/07/08 09:34:49;;;;;;;9.27;6.40;;;;;;;30.12;40.57;95139.25;2965118;40;20092;-83
2021/07/08 09:37:09;;;;;;;10.93;6.90;;;;;;;29.99;40.83;95135.19;2965970;40;20105;-84
2021/07/08 09:39:12;;;;;;;10.00;6.57;;;;;;;29.92;41.09;95129.25;2965686;40;20072;-81